createdAt,value
2018-07-16T00:00:15.662Z,0
2018-07-16T00:01:17.282Z,0
2018-07-16T00:02:18.910Z,0
2018-07-16T00:03:20.524Z,0
2018-07-16T00:04:22.144Z,0
2018-07-16T00:05:23.757Z,0
2018-07-16T00:06:25.374Z,0
2018-07-16T00:07:26.995Z,0
2018-07-16T00:08:28.609Z,0
2018-07-16T00:09:30.226Z,0
2018-07-16T00:10:31.839Z,0
2018-07-16T00:11:33.465Z,0
2018-07-16T00:12:35.078Z,0
2018-07-16T00:13:36.702Z,0
2018-07-16T00:14:39.567Z,0
2018-07-16T00:15:41.572Z,0
2018-07-16T00:16:43.165Z,0
2018-07-16T00:17:44.971Z,0
2018-07-16T00:18:46.576Z,0
2018-07-16T00:19:48.609Z,0
2018-07-16T00:20:50.834Z,0
2018-07-16T00:21:53.147Z,0
2018-07-16T00:22:54.729Z,0
2018-07-16T00:23:56.346Z,0
2018-07-16T00:24:57.961Z,0
2018-07-16T00:25:59.579Z,0
2018-07-16T00:27:01.192Z,0
2018-07-16T00:28:02.807Z,0
2018-07-16T00:29:04.431Z,0
2018-07-16T00:30:06.050Z,0
2018-07-16T00:31:07.688Z,0
2018-07-16T00:32:09.299Z,0
2018-07-16T00:33:10.909Z,0
2018-07-16T00:34:12.953Z,0
2018-07-16T00:35:14.508Z,0
2018-07-16T00:36:16.596Z,0
2018-07-16T00:37:18.261Z,0
2018-07-16T00:38:20.054Z,0
2018-07-16T00:39:22.144Z,0
2018-07-16T00:40:23.741Z,0
2018-07-16T00:41:25.367Z,0
2018-07-16T00:42:27.028Z,0
2018-07-16T00:43:28.642Z,0
2018-07-16T00:44:30.294Z,0
2018-07-16T00:45:31.876Z,0
2018-07-16T00:46:34.127Z,0
2018-07-16T00:47:36.223Z,0
2018-07-16T00:48:37.870Z,0
2018-07-16T00:49:40.037Z,0
2018-07-16T00:50:42.118Z,0
2018-07-16T00:51:44.228Z,0
2018-07-16T00:52:46.086Z,0
2018-07-16T00:53:47.692Z,0
2018-07-16T00:54:49.314Z,0
2018-07-16T00:55:50.967Z,0
2018-07-16T00:56:52.545Z,0
2018-07-16T00:57:54.160Z,0
2018-07-16T00:58:55.781Z,0
2018-07-16T00:59:57.398Z,0
2018-07-16T01:00:59.009Z,0
2018-07-16T01:02:00.629Z,0
2018-07-16T01:03:02.246Z,0
2018-07-16T01:04:03.868Z,0
2018-07-16T01:05:05.483Z,0
2018-07-16T01:06:07.094Z,0
2018-07-16T01:07:08.720Z,0
2018-07-16T01:08:10.333Z,0
2018-07-16T01:09:11.949Z,0
2018-07-16T01:10:13.569Z,0
2018-07-16T01:11:15.182Z,0
2018-07-16T01:12:16.796Z,0
2018-07-16T01:13:18.418Z,0
2018-07-16T01:14:20.041Z,0
2018-07-16T01:15:21.651Z,0
2018-07-16T01:16:23.271Z,0
2018-07-16T01:17:24.883Z,0
2018-07-16T01:18:26.495Z,0
2018-07-16T01:19:28.110Z,0
2018-07-16T01:20:29.735Z,0
2018-07-16T01:21:31.357Z,0
2018-07-16T01:22:32.973Z,0
2018-07-16T01:23:34.586Z,0
2018-07-16T01:24:36.201Z,0
2018-07-16T01:25:37.821Z,0
2018-07-16T01:26:39.431Z,0
2018-07-16T01:27:41.052Z,0
2018-07-16T01:28:42.673Z,0
2018-07-16T01:29:44.284Z,0
2018-07-16T01:30:45.903Z,0
2018-07-16T01:31:47.515Z,0
2018-07-16T01:32:49.129Z,0
2018-07-16T01:33:50.750Z,0
2018-07-16T01:34:52.366Z,0
2018-07-16T01:35:54.008Z,0
2018-07-16T01:36:55.626Z,0
2018-07-16T01:37:57.238Z,0
2018-07-16T01:38:58.846Z,0
2018-07-16T01:40:00.470Z,0
2018-07-16T01:41:02.081Z,0
2018-07-16T01:42:03.706Z,0
2018-07-16T01:43:05.326Z,0
2018-07-16T01:44:06.934Z,0
2018-07-16T01:45:08.556Z,0
2018-07-16T01:46:10.164Z,0
2018-07-16T01:47:11.780Z,0
2018-07-16T01:48:13.397Z,0
2018-07-16T01:49:15.017Z,0
2018-07-16T01:50:16.635Z,0
2018-07-16T01:51:18.247Z,0
2018-07-16T01:52:19.866Z,0
2018-07-16T01:53:21.490Z,0
2018-07-16T01:54:23.107Z,0
2018-07-16T01:55:24.720Z,0
2018-07-16T01:56:26.339Z,0
2018-07-16T01:57:27.968Z,0
2018-07-16T01:58:29.577Z,0
2018-07-16T01:59:31.194Z,0
2018-07-16T02:00:32.805Z,0
2018-07-16T02:01:34.422Z,0
2018-07-16T02:02:36.042Z,0
2018-07-16T02:03:37.663Z,0
2018-07-16T02:04:39.280Z,0
2018-07-16T02:05:40.892Z,0
2018-07-16T02:06:42.508Z,0
2018-07-16T02:07:44.121Z,0
2018-07-16T02:08:45.743Z,0
2018-07-16T02:09:47.357Z,0
2018-07-16T02:10:48.967Z,0
2018-07-16T02:11:50.581Z,0
2018-07-16T02:12:52.202Z,0
2018-07-16T02:13:53.811Z,0
2018-07-16T02:14:55.430Z,0
2018-07-16T02:15:57.052Z,0
2018-07-16T02:16:58.663Z,0
2018-07-16T02:18:00.286Z,0
2018-07-16T02:19:01.900Z,0
2018-07-16T02:20:03.517Z,0
2018-07-16T02:21:05.137Z,0
2018-07-16T02:22:06.753Z,0
2018-07-16T02:23:08.365Z,0
2018-07-16T02:24:09.982Z,0
2018-07-16T02:25:11.598Z,0
2018-07-16T02:26:13.217Z,0
2018-07-16T02:27:14.829Z,0
2018-07-16T02:28:16.444Z,0
2018-07-16T02:29:18.064Z,0
2018-07-16T02:30:19.680Z,0
2018-07-16T02:31:21.301Z,0
2018-07-16T02:32:22.913Z,0
2018-07-16T02:33:24.539Z,0
2018-07-16T02:34:26.139Z,0
2018-07-16T02:35:27.759Z,0
2018-07-16T02:36:29.378Z,0
2018-07-16T02:37:30.990Z,0
2018-07-16T02:38:32.612Z,0
2018-07-16T02:39:34.228Z,0
2018-07-16T02:40:35.849Z,0
2018-07-16T02:41:37.460Z,0
2018-07-16T02:42:39.081Z,0
2018-07-16T02:43:40.696Z,0
2018-07-16T02:44:42.307Z,0
2018-07-16T02:45:43.926Z,0
2018-07-16T02:46:45.540Z,0
2018-07-16T02:47:47.160Z,0
2018-07-16T02:48:48.769Z,0
2018-07-16T02:49:50.389Z,0
2018-07-16T02:50:52.006Z,0
2018-07-16T02:51:53.622Z,0
2018-07-16T02:52:55.230Z,0
2018-07-16T02:53:56.852Z,0
2018-07-16T02:54:58.469Z,0
2018-07-16T02:56:00.085Z,0
2018-07-16T02:57:01.699Z,0
2018-07-16T02:58:03.316Z,0
2018-07-16T02:59:04.925Z,0
2018-07-16T03:00:06.544Z,0
2018-07-16T03:01:08.168Z,0
2018-07-16T03:02:10.372Z,0
2018-07-16T03:03:11.995Z,0
2018-07-16T03:04:13.608Z,0
2018-07-16T03:05:15.252Z,0
2018-07-16T03:06:16.852Z,0
2018-07-16T03:07:18.462Z,0
2018-07-16T03:08:20.085Z,0
2018-07-16T03:09:21.704Z,0
2018-07-16T03:10:23.316Z,0
2018-07-16T03:11:24.929Z,0
2018-07-16T03:12:26.547Z,0
2018-07-16T03:13:28.163Z,0
2018-07-16T03:14:29.783Z,0
2018-07-16T03:15:31.400Z,0
2018-07-16T03:16:33.023Z,0
2018-07-16T03:17:34.635Z,0
2018-07-16T03:18:36.252Z,0
2018-07-16T03:19:37.867Z,5
2018-07-16T03:20:39.488Z,5
2018-07-16T03:21:41.109Z,5
2018-07-16T03:22:42.725Z,5
2018-07-16T03:23:44.353Z,5
2018-07-16T03:24:45.962Z,5
2018-07-16T03:25:47.588Z,5
2018-07-16T03:26:49.199Z,11
2018-07-16T03:27:50.817Z,11
2018-07-16T03:28:52.441Z,11
2018-07-16T03:29:54.063Z,11
2018-07-16T03:30:55.682Z,11
2018-07-16T03:31:57.300Z,16
2018-07-16T03:32:58.915Z,16
2018-07-16T03:34:00.532Z,16
2018-07-16T03:35:02.155Z,16
2018-07-16T03:36:03.775Z,22
2018-07-16T03:37:05.393Z,22
2018-07-16T03:38:07.016Z,22
2018-07-16T03:39:08.629Z,22
2018-07-16T03:40:10.245Z,28
2018-07-16T03:41:11.866Z,28
2018-07-16T03:42:13.487Z,28
2018-07-16T03:43:15.107Z,33
2018-07-16T03:44:16.724Z,33
2018-07-16T03:45:18.347Z,33
2018-07-16T03:46:19.982Z,39
2018-07-16T03:47:21.581Z,39
2018-07-16T03:48:23.206Z,39
2018-07-16T03:49:24.823Z,45
2018-07-16T03:50:26.438Z,45
2018-07-16T03:51:28.060Z,45
2018-07-16T03:52:29.682Z,50
2018-07-16T03:53:31.296Z,50
2018-07-16T03:54:32.945Z,50
2018-07-16T03:55:34.530Z,56
2018-07-16T03:56:36.147Z,56
2018-07-16T03:57:37.770Z,61
2018-07-16T03:58:39.387Z,61
2018-07-16T03:59:41.007Z,61
2018-07-16T04:00:42.625Z,67
2018-07-16T04:01:44.363Z,67
2018-07-16T04:02:45.868Z,67
2018-07-16T04:03:47.486Z,73
2018-07-16T04:04:49.099Z,73
2018-07-16T04:05:50.717Z,78
2018-07-16T04:06:52.342Z,78
2018-07-16T04:07:53.953Z,78
2018-07-16T04:08:55.576Z,84
2018-07-16T04:09:57.191Z,84
2018-07-16T04:10:58.809Z,84
2018-07-16T04:12:00.432Z,90
2018-07-16T04:13:02.050Z,90
2018-07-16T04:14:03.673Z,95
2018-07-16T04:15:05.293Z,95
2018-07-16T04:16:06.919Z,95
2018-07-16T04:17:08.536Z,101
2018-07-16T04:18:10.151Z,101
2018-07-16T04:19:11.770Z,101
2018-07-16T04:20:13.397Z,106
2018-07-16T04:21:15.016Z,106
2018-07-16T04:22:16.633Z,106
2018-07-16T04:23:18.257Z,112
2018-07-16T04:24:19.890Z,112
2018-07-16T04:25:21.508Z,118
2018-07-16T04:26:23.132Z,118
2018-07-16T04:27:24.760Z,118
2018-07-16T04:28:26.383Z,123
2018-07-16T04:29:28.006Z,123
2018-07-16T04:30:29.625Z,123
2018-07-16T04:31:31.246Z,129
2018-07-16T04:32:32.865Z,129
2018-07-16T04:33:34.486Z,135
2018-07-16T04:34:36.119Z,135
2018-07-16T04:35:37.747Z,135
2018-07-16T04:36:39.362Z,140
2018-07-16T04:37:40.988Z,140
2018-07-16T04:38:42.608Z,140
2018-07-16T04:39:44.254Z,146
2018-07-16T04:40:45.856Z,146
2018-07-16T04:41:47.473Z,146
2018-07-16T04:42:49.094Z,151
2018-07-16T04:43:50.719Z,151
2018-07-16T04:44:52.334Z,151
2018-07-16T04:45:53.954Z,157
2018-07-16T04:46:55.578Z,157
2018-07-16T04:47:57.198Z,157
2018-07-16T04:48:58.815Z,163
2018-07-16T04:50:00.459Z,163
2018-07-16T04:51:02.074Z,163
2018-07-16T04:52:03.698Z,168
2018-07-16T04:53:05.319Z,168
2018-07-16T04:54:06.932Z,168
2018-07-16T04:55:08.551Z,168
2018-07-16T04:56:10.189Z,174
2018-07-16T04:57:11.799Z,174
2018-07-16T04:58:13.421Z,174
2018-07-16T04:59:15.039Z,180
2018-07-16T05:00:16.662Z,180
2018-07-16T05:01:18.276Z,180
2018-07-16T05:02:19.903Z,180
2018-07-16T05:03:21.577Z,185
2018-07-16T05:04:23.148Z,185
2018-07-16T05:05:24.773Z,185
2018-07-16T05:06:26.391Z,191
2018-07-16T05:07:28.009Z,191
2018-07-16T05:08:29.642Z,191
2018-07-16T05:09:31.254Z,191
2018-07-16T05:10:32.876Z,196
2018-07-16T05:11:34.505Z,196
2018-07-16T05:12:36.117Z,196
2018-07-16T05:13:37.743Z,196
2018-07-16T05:14:39.358Z,185
2018-07-16T05:15:40.988Z,185
2018-07-16T05:16:42.609Z,191
2018-07-16T05:17:44.229Z,191
2018-07-16T05:18:46.193Z,191
2018-07-16T05:19:50.652Z,191
2018-07-16T05:20:52.272Z,196
2018-07-16T05:21:53.898Z,196
2018-07-16T05:22:55.721Z,196
2018-07-16T05:23:57.402Z,196
2018-07-16T05:24:58.965Z,202
2018-07-16T05:26:00.800Z,202
2018-07-16T05:27:02.663Z,202
2018-07-16T05:28:04.270Z,202
2018-07-16T05:29:05.879Z,208
2018-07-16T05:30:07.509Z,208
2018-07-16T05:31:09.129Z,208
2018-07-16T05:32:10.770Z,208
2018-07-16T05:33:12.369Z,208
2018-07-16T05:34:13.992Z,213
2018-07-16T05:35:15.611Z,213
2018-07-16T05:36:17.235Z,213
2018-07-16T05:37:18.861Z,213
2018-07-16T05:38:20.492Z,219
2018-07-16T05:39:22.116Z,219
2018-07-16T05:40:23.743Z,219
2018-07-16T05:41:25.438Z,225
2018-07-16T05:42:27.056Z,225
2018-07-16T05:43:28.687Z,225
2018-07-16T05:44:30.296Z,230
2018-07-16T05:45:31.912Z,230
2018-07-16T05:46:33.606Z,230
2018-07-16T05:47:35.230Z,230
2018-07-16T05:48:36.848Z,230
2018-07-16T05:49:38.475Z,236
2018-07-16T05:50:40.111Z,236
2018-07-16T05:51:41.722Z,241
2018-07-16T05:52:43.343Z,241
2018-07-16T05:53:44.967Z,241
2018-07-16T05:54:46.588Z,247
2018-07-16T05:55:48.204Z,247
2018-07-16T05:56:49.828Z,247
2018-07-16T05:57:51.440Z,247
2018-07-16T05:58:53.070Z,253
2018-07-16T05:59:54.696Z,253
2018-07-16T06:00:56.318Z,253
2018-07-16T06:01:57.946Z,258
2018-07-16T06:02:59.562Z,258
2018-07-16T06:04:01.183Z,258
2018-07-16T06:05:02.805Z,264
2018-07-16T06:06:04.429Z,264
2018-07-16T06:07:06.048Z,264
2018-07-16T06:08:07.674Z,270
2018-07-16T06:09:09.293Z,270
2018-07-16T06:10:10.911Z,270
2018-07-16T06:11:12.534Z,275
2018-07-16T06:12:14.154Z,275
2018-07-16T06:13:15.775Z,275
2018-07-16T06:14:17.412Z,281
2018-07-16T06:15:19.037Z,286
2018-07-16T06:16:20.659Z,337
2018-07-16T06:17:22.281Z,669
2018-07-16T06:18:23.897Z,1434
2018-07-16T06:19:25.523Z,1974
2018-07-16T06:20:27.142Z,2261
2018-07-16T06:21:28.769Z,2165
2018-07-16T06:22:30.395Z,1805
2018-07-16T06:23:32.025Z,1783
2018-07-16T06:24:33.642Z,1811
2018-07-16T06:25:35.272Z,2126
2018-07-16T06:26:36.894Z,2165
2018-07-16T06:27:38.522Z,2176
2018-07-16T06:28:40.144Z,2334
2018-07-16T06:29:41.774Z,2098
2018-07-16T06:30:43.395Z,2053
2018-07-16T06:31:45.035Z,2013
2018-07-16T06:32:46.651Z,2401
2018-07-16T06:33:48.276Z,2615
2018-07-16T06:34:49.905Z,2188
2018-07-16T06:35:51.535Z,2199
2018-07-16T06:36:53.156Z,2244
2018-07-16T06:37:54.797Z,2508
2018-07-16T06:38:56.418Z,2452
2018-07-16T06:39:58.089Z,2233
2018-07-16T06:40:59.910Z,2334
2018-07-16T06:42:01.305Z,2694
2018-07-16T06:43:02.931Z,3003
2018-07-16T06:44:04.567Z,2863
2018-07-16T06:45:06.194Z,2694
2018-07-16T06:46:07.827Z,2700
2018-07-16T06:47:09.454Z,2908
2018-07-16T06:48:11.087Z,3121
2018-07-16T06:49:12.721Z,3403
2018-07-16T06:50:14.346Z,3178
2018-07-16T06:51:15.976Z,2756
2018-07-16T06:52:17.612Z,2756
2018-07-16T06:53:19.246Z,2823
2018-07-16T06:54:20.875Z,2964
2018-07-16T06:55:22.506Z,2891
2018-07-16T06:56:24.145Z,2818
2018-07-16T06:57:25.776Z,2981
2018-07-16T06:58:27.417Z,3088
2018-07-16T06:59:29.044Z,2986
2018-07-16T07:00:30.682Z,2885
2018-07-16T07:01:32.316Z,3037
2018-07-16T07:02:33.949Z,3335
2018-07-16T07:03:35.583Z,3487
2018-07-16T07:04:37.217Z,3746
2018-07-16T07:05:38.852Z,4010
2018-07-16T07:06:40.504Z,3718
2018-07-16T07:07:42.134Z,3526
2018-07-16T07:08:43.773Z,3830
2018-07-16T07:09:45.406Z,4381
2018-07-16T07:10:47.047Z,4848
2018-07-16T07:11:48.686Z,4927
2018-07-16T07:12:50.319Z,4651
2018-07-16T07:13:51.958Z,3864
2018-07-16T07:14:53.591Z,3290
2018-07-16T07:15:55.224Z,3116
2018-07-16T07:16:56.870Z,2902
2018-07-16T07:17:58.504Z,2655
2018-07-16T07:19:00.142Z,2486
2018-07-16T07:20:01.789Z,2401
2018-07-16T07:21:03.420Z,2317
2018-07-16T07:22:05.072Z,2323
2018-07-16T07:23:06.705Z,2283
2018-07-16T07:24:08.346Z,2300
2018-07-16T07:25:10.029Z,2272
2018-07-16T07:26:11.624Z,2272
2018-07-16T07:27:13.259Z,2272
2018-07-16T07:28:14.901Z,2278
2018-07-16T07:29:16.535Z,2283
2018-07-16T07:30:18.173Z,2311
2018-07-16T07:31:19.817Z,2340
2018-07-16T07:32:21.455Z,2345
2018-07-16T07:33:23.094Z,2390
2018-07-16T07:34:24.735Z,2407
2018-07-16T07:35:26.417Z,2446
2018-07-16T07:36:28.022Z,2446
2018-07-16T07:37:29.660Z,2458
2018-07-16T07:38:31.316Z,2463
2018-07-16T07:39:32.956Z,2480
2018-07-16T07:40:34.594Z,2570
2018-07-16T07:41:36.241Z,2520
2018-07-16T07:42:37.885Z,2565
2018-07-16T07:43:39.527Z,2559
2018-07-16T07:44:41.178Z,2604
2018-07-16T07:45:42.814Z,2632
2018-07-16T07:46:44.455Z,2711
2018-07-16T07:47:46.211Z,2902
2018-07-16T07:48:47.745Z,3071
2018-07-16T07:49:49.391Z,3178
2018-07-16T07:50:51.029Z,3155
2018-07-16T07:51:52.674Z,3228
2018-07-16T07:52:54.311Z,3228
2018-07-16T07:53:55.956Z,3240
2018-07-16T07:54:57.798Z,3228
2018-07-16T07:55:59.245Z,3240
2018-07-16T07:57:00.893Z,3217
2018-07-16T07:58:02.527Z,3217
2018-07-16T07:59:04.192Z,3313
2018-07-16T08:00:05.815Z,3414
2018-07-16T08:01:07.453Z,3420
2018-07-16T08:02:09.099Z,3431
2018-07-16T08:03:10.814Z,3425
2018-07-16T08:04:12.386Z,3425
2018-07-16T08:05:14.030Z,3420
2018-07-16T08:06:15.668Z,3403
2018-07-16T08:07:17.323Z,3380
2018-07-16T08:08:18.965Z,3391
2018-07-16T08:09:20.616Z,3391
2018-07-16T08:10:22.258Z,3380
2018-07-16T08:11:23.902Z,3352
2018-07-16T08:12:25.542Z,3313
2018-07-16T08:13:27.186Z,3318
2018-07-16T08:14:28.829Z,3279
2018-07-16T08:15:30.479Z,3279
2018-07-16T08:16:32.123Z,3273
2018-07-16T08:17:33.772Z,3245
2018-07-16T08:18:35.422Z,3228
2018-07-16T08:19:37.062Z,3195
2018-07-16T08:20:38.709Z,3144
2018-07-16T08:21:40.354Z,3133
2018-07-16T08:22:41.997Z,3093
2018-07-16T08:23:43.639Z,3065
2018-07-16T08:24:45.288Z,3043
2018-07-16T08:25:46.938Z,3043
2018-07-16T08:26:48.577Z,3037
2018-07-16T08:27:50.222Z,3037
2018-07-16T08:28:51.870Z,2998
2018-07-16T08:29:53.515Z,2958
2018-07-16T08:30:55.164Z,2975
2018-07-16T08:31:56.812Z,2998
2018-07-16T08:32:58.455Z,3037
2018-07-16T08:34:00.103Z,3211
2018-07-16T08:35:01.746Z,3403
2018-07-16T08:36:03.388Z,3543
2018-07-16T08:37:05.038Z,3645
2018-07-16T08:38:06.685Z,4415
2018-07-16T08:39:08.354Z,5124
2018-07-16T08:40:09.975Z,5366
2018-07-16T08:41:11.623Z,5281
2018-07-16T08:42:13.275Z,5484
2018-07-16T08:43:14.920Z,5748
2018-07-16T08:44:16.572Z,5703
2018-07-16T08:45:18.219Z,5518
2018-07-16T08:46:19.888Z,5506
2018-07-16T08:47:21.516Z,5850
2018-07-16T08:48:23.156Z,6305
2018-07-16T08:49:24.807Z,6210
2018-07-16T08:50:26.451Z,6390
2018-07-16T08:51:28.101Z,6705
2018-07-16T08:52:29.748Z,6840
2018-07-16T08:53:31.393Z,6811
2018-07-16T08:54:33.038Z,6738
2018-07-16T08:55:34.683Z,6952
2018-07-16T08:56:36.326Z,6733
2018-07-16T08:57:37.993Z,6345
2018-07-16T08:58:39.613Z,6530
2018-07-16T08:59:41.259Z,6772
2018-07-16T09:00:42.908Z,7059
2018-07-16T09:01:44.559Z,7104
2018-07-16T09:02:46.229Z,7200
2018-07-16T09:03:47.871Z,6744
2018-07-16T09:04:49.520Z,5855
2018-07-16T09:05:51.164Z,5670
2018-07-16T09:06:52.811Z,5568
2018-07-16T09:07:54.465Z,5793
2018-07-16T09:08:56.110Z,6232
2018-07-16T09:09:57.759Z,6530
2018-07-16T09:10:59.479Z,6322
2018-07-16T09:12:01.048Z,6328
2018-07-16T09:13:02.790Z,6300
2018-07-16T09:14:04.305Z,6176
2018-07-16T09:15:05.958Z,6789
2018-07-16T09:16:07.602Z,7166
2018-07-16T09:17:09.248Z,7222
2018-07-16T09:18:10.893Z,7385
2018-07-16T09:19:12.554Z,7650
2018-07-16T09:20:14.189Z,7194
2018-07-16T09:21:15.830Z,6328
2018-07-16T09:22:17.537Z,6654
2018-07-16T09:23:19.143Z,7155
2018-07-16T09:24:20.795Z,7588
2018-07-16T09:25:22.477Z,7723
2018-07-16T09:26:24.088Z,7526
2018-07-16T09:27:25.733Z,7588
2018-07-16T09:28:27.379Z,7464
2018-07-16T09:29:29.029Z,6721
2018-07-16T09:30:30.679Z,5692
2018-07-16T09:31:32.324Z,5371
2018-07-16T09:32:34.029Z,6339
2018-07-16T09:33:35.619Z,6468
2018-07-16T09:34:37.273Z,5630
2018-07-16T09:35:38.921Z,5872
2018-07-16T09:36:40.565Z,6547
2018-07-16T09:37:42.222Z,6558
2018-07-16T09:38:43.864Z,6114
2018-07-16T09:39:45.507Z,6035
2018-07-16T09:40:47.160Z,6828
2018-07-16T09:41:48.802Z,7295
2018-07-16T09:42:50.456Z,6935
2018-07-16T09:43:52.106Z,6496
2018-07-16T09:44:53.757Z,6204
2018-07-16T09:45:55.404Z,6333
2018-07-16T09:46:57.048Z,7087
2018-07-16T09:47:58.695Z,7605
2018-07-16T09:49:00.347Z,7650
2018-07-16T09:50:01.991Z,7728
2018-07-16T09:51:03.642Z,7661
2018-07-16T09:52:05.292Z,7368
2018-07-16T09:53:06.935Z,7222
2018-07-16T09:54:08.579Z,7419
2018-07-16T09:55:10.231Z,6952
2018-07-16T09:56:12.000Z,6693
2018-07-16T09:57:13.532Z,6840
2018-07-16T09:58:15.182Z,7008
2018-07-16T09:59:16.852Z,6890
2018-07-16T10:00:18.504Z,6446
2018-07-16T10:01:20.147Z,6682
2018-07-16T10:02:21.791Z,6316
2018-07-16T10:03:23.443Z,5326
2018-07-16T10:04:25.086Z,5613
2018-07-16T10:05:26.737Z,6682
2018-07-16T10:06:28.409Z,6834
2018-07-16T10:07:30.050Z,6721
2018-07-16T10:08:31.792Z,6789
2018-07-16T10:09:33.354Z,6991
2018-07-16T10:10:34.995Z,7042
2018-07-16T10:11:36.637Z,6975
2018-07-16T10:12:38.286Z,6952
2018-07-16T10:13:39.930Z,7059
2018-07-16T10:14:41.575Z,6969
2018-07-16T10:15:43.223Z,7020
2018-07-16T10:16:44.873Z,7070
2018-07-16T10:17:46.518Z,6980
2018-07-16T10:18:48.167Z,6811
2018-07-16T10:19:49.813Z,6817
2018-07-16T10:20:51.462Z,6536
2018-07-16T10:21:53.109Z,6468
2018-07-16T10:22:54.759Z,6755
2018-07-16T10:23:56.407Z,6676
2018-07-16T10:24:58.054Z,6851
2018-07-16T10:25:59.698Z,7110
2018-07-16T10:27:01.344Z,6963
2018-07-16T10:28:02.998Z,7250
2018-07-16T10:29:04.645Z,7295
2018-07-16T10:30:06.292Z,7059
2018-07-16T10:31:07.940Z,7143
2018-07-16T10:32:09.589Z,7188
2018-07-16T10:33:11.242Z,7093
2018-07-16T10:34:12.888Z,6924
2018-07-16T10:35:14.534Z,7070
2018-07-16T10:36:16.194Z,6997
2018-07-16T10:37:17.843Z,6969
2018-07-16T10:38:19.483Z,7188
2018-07-16T10:39:21.157Z,7121
2018-07-16T10:40:22.777Z,6800
2018-07-16T10:41:24.433Z,7053
2018-07-16T10:42:26.081Z,7087
2018-07-16T10:43:27.719Z,7138
2018-07-16T10:44:29.369Z,7261
2018-07-16T10:45:31.009Z,7318
2018-07-16T10:46:32.660Z,7357
2018-07-16T10:47:34.308Z,7267
2018-07-16T10:48:35.974Z,7233
2018-07-16T10:49:37.680Z,7138
2018-07-16T10:50:39.273Z,7014
2018-07-16T10:51:40.930Z,7003
2018-07-16T10:52:42.571Z,6952
2018-07-16T10:53:44.221Z,6963
2018-07-16T10:54:45.871Z,6935
2018-07-16T10:55:47.521Z,6958
2018-07-16T10:56:49.178Z,6654
2018-07-16T10:57:50.819Z,6086
2018-07-16T10:58:52.472Z,6620
2018-07-16T10:59:54.118Z,7053
2018-07-16T11:00:55.767Z,6688
2018-07-16T11:01:57.465Z,6721
2018-07-16T11:02:59.143Z,7138
2018-07-16T11:04:00.717Z,6975
2018-07-16T11:05:02.367Z,6924
2018-07-16T11:06:04.026Z,7093
2018-07-16T11:07:05.654Z,6907
2018-07-16T11:08:07.308Z,6789
2018-07-16T11:09:08.951Z,6963
2018-07-16T11:10:10.602Z,7171
2018-07-16T11:11:12.253Z,6811
2018-07-16T11:12:13.899Z,6986
2018-07-16T11:13:15.551Z,7166
2018-07-16T11:14:17.204Z,6963
2018-07-16T11:15:18.847Z,7059
2018-07-16T11:16:20.496Z,7110
2018-07-16T11:17:22.146Z,6879
2018-07-16T11:18:23.790Z,6440
2018-07-16T11:19:25.442Z,6502
2018-07-16T11:20:27.083Z,6828
2018-07-16T11:21:28.743Z,7256
2018-07-16T11:22:30.379Z,7239
2018-07-16T11:23:32.034Z,7110
2018-07-16T11:24:33.681Z,7171
2018-07-16T11:25:35.326Z,7059
2018-07-16T11:26:36.971Z,6991
2018-07-16T11:27:38.621Z,7076
2018-07-16T11:28:40.271Z,7014
2018-07-16T11:29:41.920Z,7126
2018-07-16T11:30:43.565Z,7121
2018-07-16T11:31:45.218Z,7290
2018-07-16T11:32:46.870Z,7188
2018-07-16T11:33:48.513Z,6733
2018-07-16T11:34:50.168Z,6513
2018-07-16T11:35:51.877Z,6575
2018-07-16T11:36:53.449Z,6800
2018-07-16T11:37:55.100Z,6828
2018-07-16T11:38:56.753Z,6907
2018-07-16T11:39:58.398Z,6986
2018-07-16T11:41:00.041Z,6946
2018-07-16T11:42:01.692Z,7284
2018-07-16T11:43:03.342Z,7560
2018-07-16T11:44:04.985Z,6733
2018-07-16T11:45:06.633Z,5945
2018-07-16T11:46:08.300Z,6266
2018-07-16T11:47:09.933Z,6249
2018-07-16T11:48:11.576Z,6243
2018-07-16T11:49:13.227Z,6401
2018-07-16T11:50:14.869Z,6440
2018-07-16T11:51:16.518Z,6558
2018-07-16T11:52:18.246Z,6665
2018-07-16T11:53:19.814Z,6367
2018-07-16T11:54:21.468Z,6541
2018-07-16T11:55:23.117Z,6991
2018-07-16T11:56:24.755Z,7076
2018-07-16T11:57:26.411Z,7003
2018-07-16T11:58:28.057Z,6851
2018-07-16T11:59:29.706Z,6502
2018-07-16T12:00:31.356Z,6159
2018-07-16T12:01:33.001Z,6052
2018-07-16T12:02:34.648Z,6165
2018-07-16T12:03:36.385Z,6643
2018-07-16T12:04:37.939Z,6913
2018-07-16T12:05:39.586Z,6991
2018-07-16T12:06:41.236Z,6930
2018-07-16T12:07:42.890Z,6603
2018-07-16T12:08:44.529Z,6418
2018-07-16T12:09:46.181Z,6631
2018-07-16T12:10:47.821Z,6575
2018-07-16T12:11:49.468Z,6676
2018-07-16T12:12:51.117Z,6631
2018-07-16T12:13:52.758Z,6350
2018-07-16T12:14:54.404Z,6553
2018-07-16T12:15:56.058Z,6840
2018-07-16T12:16:57.704Z,6778
2018-07-16T12:17:59.346Z,6474
2018-07-16T12:19:00.995Z,6148
2018-07-16T12:20:02.636Z,6063
2018-07-16T12:21:04.289Z,6536
2018-07-16T12:22:05.934Z,6688
2018-07-16T12:23:07.581Z,6598
2018-07-16T12:24:09.230Z,6457
2018-07-16T12:25:10.870Z,6491
2018-07-16T12:26:12.516Z,6356
2018-07-16T12:27:14.164Z,6097
2018-07-16T12:28:15.806Z,6451
2018-07-16T12:29:17.453Z,6699
2018-07-16T12:30:19.100Z,6721
2018-07-16T12:31:20.748Z,6699
2018-07-16T12:32:22.398Z,6845
2018-07-16T12:33:24.041Z,6631
2018-07-16T12:34:25.688Z,6435
2018-07-16T12:35:27.343Z,6322
2018-07-16T12:36:28.992Z,6148
2018-07-16T12:37:30.632Z,6401
2018-07-16T12:38:32.277Z,6631
2018-07-16T12:39:33.923Z,6440
2018-07-16T12:40:35.567Z,6311
2018-07-16T12:41:37.245Z,6311
2018-07-16T12:42:38.866Z,6384
2018-07-16T12:43:40.509Z,6266
2018-07-16T12:44:42.158Z,6311
2018-07-16T12:45:43.806Z,6429
2018-07-16T12:46:45.519Z,6266
2018-07-16T12:47:47.095Z,6136
2018-07-16T12:48:48.738Z,5940
2018-07-16T12:49:50.386Z,6114
2018-07-16T12:50:52.032Z,6451
2018-07-16T12:51:53.680Z,6615
2018-07-16T12:52:55.324Z,6446
2018-07-16T12:53:56.961Z,6339
2018-07-16T12:54:58.611Z,6345
2018-07-16T12:56:00.259Z,6373
2018-07-16T12:57:01.920Z,6451
2018-07-16T12:58:03.547Z,6738
2018-07-16T12:59:05.199Z,6474
2018-07-16T13:00:06.834Z,6316
2018-07-16T13:01:08.475Z,6451
2018-07-16T13:02:10.114Z,6451
2018-07-16T13:03:11.767Z,6204
2018-07-16T13:04:13.405Z,6395
2018-07-16T13:05:15.061Z,6204
2018-07-16T13:06:16.733Z,5737
2018-07-16T13:07:18.342Z,5495
2018-07-16T13:08:19.986Z,5461
2018-07-16T13:09:21.633Z,5602
2018-07-16T13:10:23.273Z,6024
2018-07-16T13:11:24.918Z,6001
2018-07-16T13:12:26.564Z,5799
2018-07-16T13:13:28.200Z,5771
2018-07-16T13:14:29.849Z,5793
2018-07-16T13:15:31.485Z,5855
2018-07-16T13:16:33.153Z,5956
2018-07-16T13:17:34.796Z,5889
2018-07-16T13:18:36.436Z,5748
2018-07-16T13:19:38.073Z,6103
2018-07-16T13:20:39.725Z,5911
2018-07-16T13:21:41.374Z,6108
2018-07-16T13:22:43.016Z,5956
2018-07-16T13:23:44.664Z,5945
2018-07-16T13:24:46.304Z,5945
2018-07-16T13:25:47.947Z,5872
2018-07-16T13:26:49.588Z,5878
2018-07-16T13:27:51.234Z,5923
2018-07-16T13:28:52.871Z,5675
2018-07-16T13:29:54.514Z,5664
2018-07-16T13:30:56.157Z,5664
2018-07-16T13:31:57.799Z,5613
2018-07-16T13:32:59.441Z,5619
2018-07-16T13:34:01.079Z,5878
2018-07-16T13:35:02.720Z,6041
2018-07-16T13:36:04.362Z,5940
2018-07-16T13:37:06.073Z,5731
2018-07-16T13:38:07.662Z,5501
2018-07-16T13:39:09.300Z,5445
2018-07-16T13:40:10.944Z,5591
2018-07-16T13:41:12.590Z,5355
2018-07-16T13:42:14.240Z,4882
2018-07-16T13:43:15.885Z,4691
2018-07-16T13:44:17.526Z,4432
2018-07-16T13:45:19.161Z,4303
2018-07-16T13:46:20.862Z,4201
2018-07-16T13:47:22.448Z,4415
2018-07-16T13:48:24.088Z,5096
2018-07-16T13:49:25.734Z,5197
2018-07-16T13:50:27.378Z,5360
2018-07-16T13:51:29.017Z,5433
2018-07-16T13:52:30.653Z,5433
2018-07-16T13:53:32.297Z,5276
2018-07-16T13:54:33.936Z,5242
2018-07-16T13:55:35.580Z,5512
2018-07-16T13:56:37.225Z,5349
2018-07-16T13:57:38.870Z,4511
2018-07-16T13:58:40.507Z,3127
2018-07-16T13:59:42.143Z,2576
2018-07-16T14:00:43.787Z,2728
2018-07-16T14:01:45.483Z,3780
2018-07-16T14:02:47.065Z,4798
2018-07-16T14:03:48.708Z,4910
2018-07-16T14:04:50.342Z,4792
2018-07-16T14:05:51.987Z,4831
2018-07-16T14:06:53.621Z,4910
2018-07-16T14:07:55.262Z,4899